Time;durP1;ratioP1;P1;durP2;ratioP2;P2;SDS_P1;SDS_P2;PMS_P1;PMS_P2;Temp;Humidity;BMP_temperature;BMP_pressure;BME280_temperature;BME280_humidity;BME280_pressure;Samples;Min_cycle;Max_cycle;Signal;HPM_P1;HPM_P2
2022/03/26 00:02:20;;;;;;;10.10;8.00;;;18.10;30.40;;;;;;5169186;27;46986;-22
2022/03/26 00:04:48;;;;;;;8.60;7.60;;;18.10;30.50;;;;;;5169208;27;48818;-23
2022/03/26 00:07:15;;;;;;;8.40;7.45;;;18.10;30.50;;;;;;5169052;27;47003;-22
2022/03/26 00:09:42;;;;;;;9.30;7.70;;;18.10;30.60;;;;;;5169421;27;47151;-21
2022/03/26 00:12:09;;;;;;;11.00;8.02;;;18.10;30.50;;;;;;5169085;27;47323;-21
2022/03/26 00:14:36;;;;;;;9.68;8.27;;;18.10;30.50;;;;;;5168924;27;47024;-22
2022/03/26 00:17:03;;;;;;;9.90;7.85;;;18.10;30.50;;;;;;5168820;27;46926;-22
2022/03/26 00:19:30;;;;;;;8.75;7.60;;;18.10;30.50;;;;;;5168852;27;46882;-22
2022/03/26 00:21:58;;;;;;;8.70;7.35;;;18.10;30.50;;;;;;5169343;27;46983;-22
2022/03/26 00:24:25;;;;;;;9.55;7.57;;;18.10;30.50;;;;;;5168744;27;47000;-21
2022/03/26 00:26:52;;;;;;;8.73;7.65;;;18.00;30.50;;;;;;5169126;27;46935;-22
2022/03/26 00:29:18;;;;;;;8.77;7.03;;;18.00;30.50;;;;;;5168948;27;46913;-22
2022/03/26 00:31:45;;;;;;;9.02;7.35;;;18.00;30.50;;;;;;5168746;27;47312;-23
2022/03/26 00:34:12;;;;;;;9.20;7.47;;;18.00;30.50;;;;;;5168877;27;48144;-22
2022/03/26 00:36:39;;;;;;;9.13;7.60;;;18.00;30.60;;;;;;5168512;27;47340;-21
2022/03/26 00:39:07;;;;;;;8.23;6.97;;;18.00;30.60;;;;;;5168488;27;46895;-21
2022/03/26 00:41:34;;;;;;;9.75;7.15;;;18.00;30.50;;;;;;5168560;27;47282;-22
2022/03/26 00:44:01;;;;;;;9.52;8.32;;;17.90;30.50;;;;;;5168605;27;48097;-21
2022/03/26 00:46:28;;;;;;;8.25;7.15;;;17.90;30.50;;;;;;5168048;27;47030;-22
2022/03/26 00:48:56;;;;;;;7.88;7.07;;;17.90;30.60;;;;;;5168074;27;47074;-22
2022/03/26 00:51:22;;;;;;;9.10;7.22;;;17.90;30.60;;;;;;5168453;27;47082;-22
2022/03/26 00:53:49;;;;;;;9.90;7.65;;;17.90;30.60;;;;;;5168663;27;48230;-22
2022/03/26 00:56:17;;;;;;;11.52;7.57;;;17.90;30.60;;;;;;5168293;27;46848;-22
2022/03/26 00:58:44;;;;;;;9.27;7.28;;;17.90;30.60;;;;;;5168302;27;46894;-23
2022/03/26 01:01:11;;;;;;;10.00;7.55;;;17.80;30.60;;;;;;5168132;27;47327;-22
2022/03/26 01:03:38;;;;;;;9.05;7.68;;;17.80;30.60;;;;;;5168102;27;49147;-21
2022/03/26 01:06:05;;;;;;;7.45;6.72;;;17.80;30.60;;;;;;5168165;27;47234;-22
2022/03/26 01:08:32;;;;;;;9.52;8.13;;;17.80;30.60;;;;;;5168388;27;46732;-21
2022/03/26 01:10:59;;;;;;;10.90;7.97;;;17.80;30.60;;;;;;5168400;27;46986;-22
2022/03/26 01:13:28;;;;;;;10.52;7.22;;;17.80;30.60;;;;;;5167607;27;49055;-22
2022/03/26 01:15:55;;;;;;;11.05;8.10;;;17.80;30.70;;;;;;5167981;27;47030;-21
2022/03/26 01:18:22;;;;;;;10.50;7.93;;;17.70;30.70;;;;;;5168004;27;46791;-22
2022/03/26 01:20:49;;;;;;;9.55;7.85;;;17.70;30.70;;;;;;5168232;27;46869;-22
2022/03/26 01:23:19;;;;;;;10.90;7.85;;;17.70;30.70;;;;;;5168148;27;47065;-21
2022/03/26 01:25:45;;;;;;;9.95;7.68;;;17.70;30.70;;;;;;5167667;27;46844;-22
2022/03/26 01:28:12;;;;;;;9.60;7.88;;;17.70;30.70;;;;;;5168242;27;47020;-21
2022/03/26 01:30:41;;;;;;;11.07;8.48;;;17.70;30.70;;;;;;5168029;27;46984;-22
2022/03/26 01:33:07;;;;;;;9.75;7.70;;;17.60;30.80;;;;;;5168126;27;48938;-21
2022/03/26 01:35:34;;;;;;;9.20;7.43;;;17.60;30.80;;;;;;5167866;27;46900;-22
2022/03/26 01:38:04;;;;;;;9.45;8.15;;;17.60;30.80;;;;;;5168089;27;46786;-22
2022/03/26 01:40:31;;;;;;;9.20;7.72;;;17.60;30.80;;;;;;5167920;27;46920;-22
2022/03/26 01:42:59;;;;;;;8.98;7.75;;;17.60;30.80;;;;;;5167853;27;49021;-21
2022/03/26 01:45:27;;;;;;;8.93;7.65;;;17.60;30.80;;;;;;5167311;27;46875;-22
2022/03/26 01:47:55;;;;;;;12.70;8.55;;;17.60;30.90;;;;;;5168183;27;46819;-22
2022/03/26 01:50:22;;;;;;;10.13;8.45;;;17.60;30.90;;;;;;5167608;27;47045;-21
2022/03/26 01:52:49;;;;;;;10.45;8.65;;;17.50;30.90;;;;;;5167559;27;47241;-22
2022/03/26 01:55:15;;;;;;;8.77;7.57;;;17.50;30.90;;;;;;5167355;27;46819;-22
2022/03/26 01:57:42;;;;;;;10.10;7.78;;;17.50;30.90;;;;;;5167940;27;46808;-21
2022/03/26 02:00:09;;;;;;;11.63;8.10;;;17.50;30.90;;;;;;5171248;27;46824;-22
2022/03/26 02:02:37;;;;;;;10.18;8.40;;;17.50;31.00;;;;;;5171306;27;46885;-22
2022/03/26 02:05:05;;;;;;;10.55;7.82;;;17.50;31.00;;;;;;5171302;27;46879;-23
2022/03/26 02:07:32;;;;;;;9.38;7.85;;;17.40;30.90;;;;;;5171395;27;46797;-21
2022/03/26 02:09:59;;;;;;;10.80;8.43;;;17.40;30.90;;;;;;5171229;27;46887;-21
2022/03/26 02:12:26;;;;;;;11.68;8.68;;;17.40;31.00;;;;;;5170470;27;49111;-22
2022/03/26 02:14:53;;;;;;;11.18;8.77;;;17.40;31.00;;;;;;5171193;27;46947;-21
2022/03/26 02:17:20;;;;;;;10.45;8.52;;;17.40;31.00;;;;;;5170996;27;46883;-22
2022/03/26 02:19:51;;;;;;;10.45;8.73;;;17.30;31.00;;;;;;5170926;27;47346;-22
2022/03/26 02:22:18;;;;;;;10.32;8.55;;;17.30;31.00;;;;;;5170586;27;48843;-21
2022/03/26 02:24:44;;;;;;;10.18;8.10;;;17.30;31.10;;;;;;5170652;27;46895;-21
2022/03/26 02:27:11;;;;;;;9.23;8.25;;;17.30;31.10;;;;;;5170854;27;46869;-22
2022/03/26 02:29:38;;;;;;;12.23;8.90;;;17.30;31.10;;;;;;5170658;27;47272;-21
2022/03/26 02:32:05;;;;;;;10.90;8.88;;;17.30;31.20;;;;;;5170316;27;48123;-21
2022/03/26 02:34:32;;;;;;;10.25;8.15;;;17.30;31.20;;;;;;5170772;27;47060;-21
2022/03/26 02:37:00;;;;;;;10.55;8.27;;;17.20;31.10;;;;;;5170743;27;46811;-21
2022/03/26 02:39:27;;;;;;;10.18;8.32;;;17.20;31.80;;;;;;5170562;27;47301;-21
2022/03/26 02:41:55;;;;;;;10.80;8.80;;;17.20;31.20;;;;;;5170391;27;48040;-22
2022/03/26 02:44:21;;;;;;;10.20;8.45;;;17.20;31.20;;;;;;5170360;27;46945;-21
2022/03/26 02:46:48;;;;;;;12.68;9.80;;;17.20;31.90;;;;;;5170440;27;46943;-22
2022/03/26 02:49:15;;;;;;;12.32;9.57;;;17.20;31.30;;;;;;5170794;27;46858;-22
2022/03/26 02:51:42;;;;;;;11.88;9.10;;;17.10;31.30;;;;;;5169979;27;47893;-22
2022/03/26 02:54:18;;;;;;;10.95;8.63;;;17.10;31.30;;;;;;5170509;27;46882;-22
2022/03/26 02:56:45;;;;;;;11.02;8.57;;;17.10;31.30;;;;;;5170124;27;46786;-22
2022/03/26 02:59:12;;;;;;;11.48;8.88;;;17.10;31.40;;;;;;5170431;27;47295;-22
2022/03/26 03:01:39;;;;;;;12.23;9.02;;;17.10;31.40;;;;;;5169858;27;49130;-22
2022/03/26 03:04:05;;;;;;;11.60;9.02;;;17.10;31.40;;;;;;5170289;27;46883;-22
2022/03/26 03:06:32;;;;;;;11.25;9.13;;;17.00;31.40;;;;;;5169998;27;46865;-22
2022/03/26 03:08:59;;;;;;;11.68;8.60;;;17.00;31.40;;;;;;5170570;27;46912;-22
2022/03/26 03:11:27;;;;;;;12.38;9.20;;;17.00;31.40;;;;;;5168650;27;48917;-22
2022/03/26 03:13:54;;;;;;;10.35;8.13;;;17.00;31.50;;;;;;5169634;27;46973;-22
2022/03/26 03:16:20;;;;;;;11.07;9.10;;;17.00;31.50;;;;;;5169895;27;46811;-22
2022/03/26 03:18:47;;;;;;;11.15;8.70;;;16.90;31.50;;;;;;5170346;27;46853;-22
2022/03/26 03:21:14;;;;;;;11.95;9.10;;;16.90;31.50;;;;;;5169946;27;49030;-22
2022/03/26 03:23:40;;;;;;;9.40;7.88;;;16.90;31.50;;;;;;5170085;27;46977;-23
2022/03/26 03:26:07;;;;;;;11.80;8.77;;;16.90;31.50;;;;;;5169880;27;46902;-22
2022/03/26 03:28:35;;;;;;;11.65;8.98;;;16.90;31.60;;;;;;5169965;27;46928;-22
2022/03/26 03:31:02;;;;;;;12.48;8.52;;;16.90;31.60;;;;;;5169382;27;48107;-22
2022/03/26 03:33:29;;;;;;;11.45;9.50;;;16.80;31.60;;;;;;5169803;27;46754;-22
2022/03/26 03:35:56;;;;;;;11.43;8.73;;;16.80;31.60;;;;;;5169821;27;46986;-22
2022/03/26 03:38:24;;;;;;;12.02;9.48;;;16.80;31.60;;;;;;5169931;27;47098;-22
2022/03/26 03:40:50;;;;;;;11.52;9.05;;;16.80;31.70;;;;;;5169673;27;47008;-22
2022/03/26 03:43:17;;;;;;;12.32;8.73;;;16.80;31.70;;;;;;5169808;27;46956;-21
2022/03/26 03:45:45;;;;;;;12.60;9.00;;;16.80;31.70;;;;;;5169229;27;46837;-22
2022/03/26 03:48:12;;;;;;;11.80;9.32;;;16.70;31.70;;;;;;5169531;27;46950;-22
2022/03/26 03:50:39;;;;;;;10.65;8.63;;;16.70;31.70;;;;;;5169307;27;48911;-21
2022/03/26 03:53:05;;;;;;;12.07;8.75;;;16.70;31.80;;;;;;5169563;27;46821;-22
2022/03/26 03:55:32;;;;;;;11.13;9.00;;;16.70;32.30;;;;;;5169425;27;47015;-22
2022/03/26 03:57:59;;;;;;;12.52;9.02;;;16.70;31.70;;;;;;5169340;27;46883;-22
2022/03/26 04:00:26;;;;;;;12.98;9.35;;;16.70;31.80;;;;;;5168826;27;46996;-22
2022/03/26 04:02:54;;;;;;;12.07;9.07;;;16.60;31.70;;;;;;5169502;27;47516;-22
2022/03/26 04:05:21;;;;;;;11.38;8.90;;;16.60;31.80;;;;;;5168698;27;46860;-22
2022/03/26 04:07:48;;;;;;;14.30;9.63;;;16.60;31.90;;;;;;5169491;27;46830;-22
2022/03/26 04:10:15;;;;;;;11.65;8.70;;;16.60;31.90;;;;;;5169030;27;49044;-23
2022/03/26 04:12:42;;;;;;;12.60;9.45;;;16.60;31.90;;;;;;5168423;27;46967;-22
2022/03/26 04:15:10;;;;;;;11.27;8.95;;;16.60;32.00;;;;;;5168925;27;46902;-22
2022/03/26 04:17:36;;;;;;;14.50;9.38;;;16.50;31.90;;;;;;5169496;27;47181;-22
2022/03/26 04:20:08;;;;;;;12.68;9.55;;;16.50;31.90;;;;;;5168949;27;49165;-22
2022/03/26 04:22:35;;;;;;;12.93;9.15;;;16.50;32.00;;;;;;5169259;27;46927;-22
2022/03/26 04:25:02;;;;;;;12.88;9.10;;;16.50;32.00;;;;;;5169011;27;46842;-22
2022/03/26 04:27:29;;;;;;;13.30;9.35;;;16.50;32.10;;;;;;5168853;27;46825;-23
2022/03/26 04:29:55;;;;;;;11.40;9.05;;;16.50;32.00;;;;;;5168942;27;48161;-22
2022/03/26 04:32:22;;;;;;;11.40;9.50;;;16.40;32.10;;;;;;5168789;27;47434;-22
2022/03/26 04:34:49;;;;;;;11.88;9.13;;;16.40;32.00;;;;;;5168636;27;46905;-22
2022/03/26 04:37:17;;;;;;;10.88;9.05;;;16.40;32.10;;;;;;5168556;27;46785;-22
2022/03/26 04:39:44;;;;;;;11.48;8.65;;;16.40;32.00;;;;;;5168486;27;49090;-23
2022/03/26 04:42:10;;;;;;;11.32;8.88;;;16.40;32.10;;;;;;5168473;27;47099;-22
2022/03/26 04:44:37;;;;;;;12.27;9.38;;;16.40;32.20;;;;;;5168541;27;46833;-23
2022/03/26 04:47:05;;;;;;;12.98;8.93;;;16.40;32.20;;;;;;5168418;27;47287;-23
2022/03/26 04:49:31;;;;;;;13.60;9.27;;;16.30;32.10;;;;;;5168659;27;47923;-23
2022/03/26 04:51:58;;;;;;;10.30;8.35;;;16.30;32.10;;;;;;5168382;27;47475;-22
2022/03/26 04:54:27;;;;;;;11.55;9.35;;;16.30;32.20;;;;;;5168375;27;46807;-13
2022/03/26 04:56:53;;;;;;;12.95;9.43;;;16.30;32.20;;;;;;5168651;27;46840;-13
2022/03/26 04:59:20;;;;;;;12.52;8.98;;;16.30;32.20;;;;;;5168406;27;49114;-13
2022/03/26 05:01:47;;;;;;;11.48;8.63;;;16.20;32.20;;;;;;5168098;27;46909;-12
2022/03/26 05:04:14;;;;;;;11.50;9.25;;;16.20;32.20;;;;;;5168548;27;46870;-21
2022/03/26 05:06:41;;;;;;;13.25;9.75;;;16.20;32.30;;;;;;5168383;27;47071;-22
2022/03/26 05:09:07;;;;;;;11.00;8.80;;;16.20;32.20;;;;;;5168418;27;48258;-23
2022/03/26 05:11:37;;;;;;;12.10;8.98;;;16.20;32.20;;;;;;5167743;27;46973;-22
2022/03/26 05:14:04;;;;;;;12.15;8.70;;;16.20;32.30;;;;;;5168079;27;46831;-21
2022/03/26 05:16:30;;;;;;;11.27;8.65;;;16.10;32.30;;;;;;5168179;27;46860;-22
2022/03/26 05:18:57;;;;;;;12.07;9.02;;;16.10;32.30;;;;;;5168209;27;48052;-13
2022/03/26 05:21:24;;;;;;;12.57;8.98;;;16.10;32.30;;;;;;5168011;27;46943;-12
2022/03/26 05:23:51;;;;;;;11.77;8.93;;;16.10;32.30;;;;;;5168218;27;46900;-13
2022/03/26 05:26:18;;;;;;;10.73;9.07;;;16.10;32.30;;;;;;5167984;27;47082;-13
2022/03/26 05:28:47;;;;;;;12.77;9.07;;;16.10;32.40;;;;;;5168153;27;46790;-13
2022/03/26 05:31:14;;;;;;;10.80;8.88;;;16.00;32.30;;;;;;5167851;27;47196;-22
2022/03/26 05:33:40;;;;;;;10.57;8.55;;;16.00;32.40;;;;;;5169373;27;46880;-22
2022/03/26 05:36:07;;;;;;;11.40;8.65;;;16.00;32.50;;;;;;5171896;27;46952;-22
2022/03/26 05:38:34;;;;;;;12.85;9.32;;;16.00;32.50;;;;;;5171580;27;48335;-23
2022/03/26 05:41:01;;;;;;;12.15;8.48;;;16.00;32.50;;;;;;5171443;27;47379;-22
2022/03/26 05:43:27;;;;;;;11.68;8.60;;;16.00;32.50;;;;;;5171417;27;46877;-13
2022/03/26 05:45:55;;;;;;;11.70;9.10;;;15.90;32.50;;;;;;5171682;27;46852;-12
2022/03/26 05:48:22;;;;;;;11.10;8.52;;;15.90;32.40;;;;;;5171205;27;47798;-13
2022/03/26 05:50:49;;;;;;;11.45;8.57;;;15.90;32.50;;;;;;5171095;27;47164;-12
2022/03/26 05:53:15;;;;;;;11.45;8.70;;;15.90;32.50;;;;;;5171581;27;46898;-13
2022/03/26 05:55:42;;;;;;;10.95;8.82;;;15.90;32.50;;;;;;5171279;27;46881;-13
2022/03/26 05:58:10;;;;;;;11.63;9.18;;;15.90;32.50;;;;;;5171146;27;47091;-13
2022/03/26 06:00:37;;;;;;;11.27;8.80;;;15.90;32.50;;;;;;5170929;27;46859;-13
2022/03/26 06:03:05;;;;;;;12.52;9.07;;;15.80;32.50;;;;;;5171101;27;47038;-13
2022/03/26 06:05:32;;;;;;;13.20;9.43;;;15.80;32.50;;;;;;5171070;27;47302;-13
2022/03/26 06:07:59;;;;;;;12.52;9.25;;;15.80;32.60;;;;;;5171150;27;48133;-13
2022/03/26 06:10:28;;;;;;;12.30;9.07;;;15.80;32.60;;;;;;5171014;27;46926;-13
2022/03/26 06:12:54;;;;;;;12.02;9.07;;;15.80;32.60;;;;;;5170627;27;46842;-13
2022/03/26 06:15:21;;;;;;;13.13;9.00;;;15.80;32.60;;;;;;5171289;27;46833;-13
2022/03/26 06:17:48;;;;;;;12.93;8.88;;;15.80;32.60;;;;;;5170690;27;47062;-13
2022/03/26 06:20:16;;;;;;;12.15;8.82;;;15.80;32.60;;;;;;5171018;27;46870;-13
2022/03/26 06:22:43;;;;;;;10.45;8.85;;;15.80;32.60;;;;;;5171113;27;46870;-12
2022/03/26 06:25:10;;;;;;;11.63;8.75;;;15.80;32.70;;;;;;5170917;27;46899;-12
2022/03/26 06:27:36;;;;;;;11.80;8.80;;;15.80;32.60;;;;;;5170909;27;47967;-13
2022/03/26 06:30:04;;;;;;;12.10;8.07;;;15.80;32.60;;;;;;5170552;27;46926;-13
2022/03/26 06:32:30;;;;;;;12.10;9.07;;;15.80;32.60;;;;;;5171016;27;46840;-13
2022/03/26 06:34:57;;;;;;;9.63;8.20;;;15.80;32.70;;;;;;5169725;27;46913;-14
2022/03/26 06:37:25;;;;;;;12.23;9.35;;;15.80;32.60;;;;;;5170452;27;47165;-13
2022/03/26 06:39:52;;;;;;;11.15;8.63;;;15.80;32.70;;;;;;5170763;27;46797;-21
2022/03/26 06:42:19;;;;;;;11.48;8.05;;;15.80;32.70;;;;;;5170421;27;47010;-22
2022/03/26 06:44:46;;;;;;;11.65;8.73;;;15.70;32.70;;;;;;5170726;27;46890;-22
2022/03/26 06:47:13;;;;;;;10.60;8.25;;;15.70;32.70;;;;;;5170587;27;48888;-22
2022/03/26 06:49:41;;;;;;;11.30;8.65;;;15.70;32.70;;;;;;5170773;27;47284;-21
2022/03/26 06:52:08;;;;;;;12.23;9.20;;;15.70;32.70;;;;;;5170174;27;46923;-22
2022/03/26 06:54:36;;;;;;;12.30;9.10;;;15.70;32.70;;;;;;5170573;27;47284;-22
2022/03/26 06:57:04;;;;;;;9.63;8.15;;;15.70;32.70;;;;;;5170392;27;47108;-22
2022/03/26 06:59:31;;;;;;;11.50;7.72;;;15.70;32.70;;;;;;5170155;27;47035;-22
2022/03/26 07:01:57;;;;;;;9.73;7.20;;;15.70;32.70;;;;;;5170168;27;46995;-22
2022/03/26 07:04:24;;;;;;;11.70;8.80;;;15.70;32.70;;;;;;5170302;27;46979;-22
2022/03/26 07:06:51;;;;;;;10.77;8.30;;;15.70;32.70;;;;;;5170001;27;47952;-22
2022/03/26 07:09:17;;;;;;;11.27;8.52;;;15.70;32.70;;;;;;5169978;27;46864;-22
2022/03/26 07:11:45;;;;;;;10.57;8.20;;;15.70;32.70;;;;;;5170069;27;47003;-22
2022/03/26 07:14:12;;;;;;;11.57;8.63;;;15.70;32.70;;;;;;5170209;27;47286;-13
2022/03/26 07:16:39;;;;;;;12.77;8.57;;;15.70;32.70;;;;;;5169795;27;47049;-13
2022/03/26 07:19:05;;;;;;;11.98;8.05;;;15.70;32.70;;;;;;5170339;27;46991;-13
2022/03/26 07:21:32;;;;;;;10.18;7.72;;;15.70;32.70;;;;;;5170059;27;47059;-12
2022/03/26 07:23:59;;;;;;;12.80;8.65;;;15.70;32.70;;;;;;5170421;27;46894;-12
2022/03/26 07:26:25;;;;;;;10.45;8.35;;;15.70;32.70;;;;;;5169396;27;48247;-13
2022/03/26 07:28:55;;;;;;;8.70;7.32;;;15.70;32.70;;;;;;5169632;27;47217;-22
2022/03/26 07:31:22;;;;;;;10.85;8.45;;;15.70;32.70;;;;;;5169696;27;46902;-22
2022/03/26 07:33:49;;;;;;;12.80;8.10;;;15.70;32.70;;;;;;5169473;27;47076;-22
2022/03/26 07:36:16;;;;;;;9.38;7.45;;;15.70;32.70;;;;;;5169199;27;47067;-22
2022/03/26 07:38:43;;;;;;;9.75;8.02;;;15.70;32.80;;;;;;5167774;27;46884;-22
2022/03/26 07:41:09;;;;;;;10.90;8.27;;;15.70;32.70;;;;;;5169305;27;46938;-22
2022/03/26 07:43:36;;;;;;;24.35;14.80;;;15.70;32.70;;;;;;5169845;27;47116;-25
2022/03/26 07:46:04;;;;;;;21.75;15.65;;;15.70;33.80;;;;;;5169134;27;47057;-24
2022/03/26 07:48:31;;;;;;;24.65;16.40;;;15.60;34.80;;;;;;5169341;27;46793;-24
2022/03/26 07:50:58;;;;;;;25.95;16.50;;;15.50;35.00;;;;;;5169772;27;46893;-23
2022/03/26 07:53:25;;;;;;;24.60;16.63;;;15.50;35.40;;;;;;5169765;27;47111;-21
2022/03/26 07:55:52;;;;;;;28.38;16.98;;;15.40;35.60;;;;;;5168763;27;47970;-21
2022/03/26 07:58:19;;;;;;;26.48;18.73;;;15.40;36.00;;;;;;5169228;27;46907;-21
2022/03/26 08:00:46;;;;;;;26.95;18.48;;;15.30;36.60;;;;;;5168828;27;46746;-24
2022/03/26 08:03:14;;;;;;;26.73;18.55;;;15.20;36.60;;;;;;5169322;27;46910;-13
2022/03/26 08:05:40;;;;;;;27.83;18.67;;;15.20;36.70;;;;;;5168965;27;49316;-14
2022/03/26 08:08:07;;;;;;;25.90;18.02;;;15.10;37.00;;;;;;5169222;27;46919;-13
2022/03/26 08:10:34;;;;;;;27.73;17.92;;;15.10;37.20;;;;;;5168757;27;46987;-13
2022/03/26 08:13:01;;;;;;;26.45;17.40;;;15.10;37.30;;;;;;5168797;27;47107;-12
2022/03/26 08:15:27;;;;;;;28.63;18.48;;;15.10;37.40;;;;;;5168657;27;47065;-22
2022/03/26 08:17:54;;;;;;;25.92;17.33;;;15.00;37.70;;;;;;5168851;27;46989;-21
2022/03/26 08:20:22;;;;;;;28.98;18.00;;;15.00;37.80;;;;;;5168623;27;46909;-22
2022/03/26 08:22:49;;;;;;;27.73;17.55;;;15.00;38.00;;;;;;5169342;27;46902;-24
2022/03/26 08:26:19;;;;;;;29.50;18.30;;;15.00;37.80;;;;;;5168759;27;47919;-22
2022/03/26 08:28:06;;;;;;;28.20;16.98;;;15.00;38.20;;;;;;5168880;27;46925;-22
2022/03/26 08:30:33;;;;;;;25.85;16.60;;;15.10;38.40;;;;;;5168888;27;46840;-22
2022/03/26 08:33:01;;;;;;;28.58;17.45;;;15.10;38.30;;;;;;5168946;27;47241;-22
2022/03/26 08:35:31;;;;;;;28.73;16.17;;;15.10;38.20;;;;;;5168166;27;48025;-22
2022/03/26 08:37:58;;;;;;;27.38;15.93;;;15.10;38.10;;;;;;5168897;27;46891;-21
2022/03/26 08:40:25;;;;;;;22.55;15.48;;;15.10;38.00;;;;;;5168555;27;47057;-22
2022/03/26 08:42:52;;;;;;;21.20;14.57;;;15.20;37.70;;;;;;5168635;27;47313;-22
2022/03/26 08:45:19;;;;;;;22.75;13.77;;;15.20;37.50;;;;;;5168354;27;47077;-22
2022/03/26 08:47:45;;;;;;;22.80;15.05;;;15.30;37.40;;;;;;5168669;27;47051;-22
2022/03/26 08:50:12;;;;;;;24.48;14.43;;;15.40;37.30;;;;;;5168140;27;46910;-22
2022/03/26 08:52:41;;;;;;;23.35;15.88;;;15.40;37.20;;;;;;5167741;27;46873;-22
2022/03/26 08:55:08;;;;;;;27.42;16.27;;;15.50;37.50;;;;;;5165805;27;48866;-22
2022/03/26 08:57:35;;;;;;;25.02;17.10;;;15.50;38.00;;;;;;5153981;27;47062;-22
2022/03/26 09:00:02;;;;;;;27.25;17.33;;;15.50;38.10;;;;;;5150380;27;47008;-22
2022/03/26 09:02:29;;;;;;;22.95;16.05;;;15.50;37.90;;;;;;5158427;27;46908;-21
2022/03/26 09:04:56;;;;;;;29.52;17.85;;;15.50;38.00;;;;;;5167990;27;47947;-22
2022/03/26 09:07:22;;;;;;;26.00;16.50;;;15.50;38.00;;;;;;5167709;27;46832;-22
2022/03/26 09:09:50;;;;;;;28.30;16.38;;;15.50;38.10;;;;;;5170496;27;46973;-22
2022/03/26 09:12:17;;;;;;;26.02;16.55;;;15.50;37.90;;;;;;5171294;27;46837;-23
2022/03/26 09:14:44;;;;;;;28.05;16.40;;;15.50;38.10;;;;;;5171485;27;49044;-22
2022/03/26 09:17:11;;;;;;;26.67;17.08;;;15.50;38.10;;;;;;5170244;27;47087;-22
2022/03/26 09:19:38;;;;;;;30.35;17.05;;;15.60;38.20;;;;;;5169895;27;46829;-23
2022/03/26 09:22:04;;;;;;;31.02;17.88;;;15.60;38.10;;;;;;5169859;27;47016;-22
2022/03/26 09:24:31;;;;;;;31.55;16.58;;;15.60;38.40;;;;;;5169810;27;47965;-13
2022/03/26 09:26:59;;;;;;;28.45;18.25;;;15.70;38.00;;;;;;5169820;27;47160;-13
2022/03/26 09:29:26;;;;;;;31.38;17.88;;;15.70;38.30;;;;;;5169837;27;46992;-13
2022/03/26 09:31:53;;;;;;;30.02;17.90;;;15.70;38.30;;;;;;5169743;27;46761;-13
2022/03/26 09:34:20;;;;;;;26.17;17.42;;;15.70;38.00;;;;;;5169998;27;48137;-12
2022/03/26 09:36:47;;;;;;;30.20;17.38;;;15.80;38.40;;;;;;5171733;27;47547;-13
2022/03/26 09:39:13;;;;;;;32.20;17.20;;;15.80;38.30;;;;;;5171416;27;47202;-13
2022/03/26 09:41:40;;;;;;;32.15;18.15;;;15.80;38.20;;;;;;5171564;27;47264;-13
2022/03/26 09:44:08;;;;;;;28.50;17.13;;;15.80;38.20;;;;;;5171463;27;49514;-13
2022/03/26 09:46:36;;;;;;;28.83;18.10;;;15.90;38.20;;;;;;5171095;27;47028;-13
2022/03/26 09:49:03;;;;;;;28.15;16.38;;;15.90;38.60;;;;;;5170947;27;46927;-13
2022/03/26 09:51:30;;;;;;;28.80;17.35;;;15.90;38.30;;;;;;5171281;27;46997;-13
2022/03/26 09:53:57;;;;;;;27.85;18.15;;;16.00;38.30;;;;;;5155137;27;49194;-12
2022/03/26 09:56:24;;;;;;;28.00;17.55;;;16.00;38.50;;;;;;5170788;27;46827;-13
2022/03/26 09:58:52;;;;;;;28.05;16.60;;;16.00;38.40;;;;;;5158855;27;46910;-13
2022/03/26 10:01:20;;;;;;;30.13;17.23;;;16.10;38.10;;;;;;5150155;27;46982;-13
2022/03/26 10:04:10;;;;;;;27.85;15.95;;;16.10;38.00;;;;;;5150114;27;47891;-13
2022/03/26 10:06:37;;;;;;;28.02;17.27;;;16.20;38.40;;;;;;5149511;27;46896;-12
2022/03/26 10:09:03;;;;;;;29.48;17.50;;;16.20;38.10;;;;;;5151207;27;46908;-13
2022/03/26 10:11:33;;;;;;;28.20;17.48;;;16.30;38.30;;;;;;5170506;27;46847;-13
2022/03/26 10:13:59;;;;;;;24.70;16.42;;;16.30;38.30;;;;;;5170424;27;47091;-13
2022/03/26 10:16:28;;;;;;;25.45;15.82;;;16.30;38.00;;;;;;5170437;27;46991;-12
2022/03/26 10:18:58;;;;;;;28.48;17.00;;;16.40;37.80;;;;;;5170011;27;46880;-13
2022/03/26 10:21:25;;;;;;;28.38;16.73;;;16.40;38.20;;;;;;5170853;27;47010;-13
2022/03/26 10:23:52;;;;;;;27.25;17.67;;;16.50;37.70;;;;;;5169678;27;48824;-13
2022/03/26 10:26:21;;;;;;;27.38;17.13;;;16.60;37.90;;;;;;5170458;27;47018;-12
2022/03/26 10:28:50;;;;;;;28.50;18.00;;;16.60;37.70;;;;;;5170715;27;46850;-14
2022/03/26 10:34:06;;;;;;;33.13;16.73;;;16.70;37.50;;;;;;5167306;27;47368;-13
2022/03/26 10:36:34;;;;;;;37.25;17.00;;;16.80;38.20;;;;;;5170274;27;47201;-12
2022/03/26 10:39:01;;;;;;;35.58;17.25;;;16.90;38.10;;;;;;5170447;27;46866;-20
2022/03/26 10:41:31;;;;;;;29.23;16.50;;;17.00;37.70;;;;;;5170287;27;46947;-20
2022/03/26 10:44:07;;;;;;;25.98;17.02;;;17.10;37.60;;;;;;5169836;27;47671;-20
2022/03/26 10:46:41;;;;;;;29.33;17.55;;;17.10;37.20;;;;;;5170001;27;47409;-20
2022/03/26 10:49:09;;;;;;;26.73;16.98;;;17.20;37.50;;;;;;5170180;27;46727;-20
2022/03/26 10:51:36;;;;;;;29.48;17.30;;;17.30;37.40;;;;;;5169703;27;46891;-20
2022/03/26 10:54:08;;;;;;;32.97;17.13;;;17.40;37.40;;;;;;5168115;27;47929;-20
2022/03/26 10:56:35;;;;;;;25.20;16.42;;;17.40;37.10;;;;;;5158981;27;47105;-20
2022/03/26 10:59:02;;;;;;;30.35;17.13;;;17.40;37.20;;;;;;5165800;27;46873;-20
2022/03/26 11:01:29;;;;;;;31.98;18.27;;;17.50;37.10;;;;;;5168233;27;47090;-20
2022/03/26 11:03:57;;;;;;;33.25;17.67;;;17.60;37.00;;;;;;5167858;27;48387;-21
2022/03/26 11:06:26;;;;;;;27.92;18.42;;;17.70;36.90;;;;;;5167979;27;47006;-20
2022/03/26 11:08:59;;;;;;;32.63;17.75;;;17.70;36.60;;;;;;5169149;27;46924;-20
2022/03/26 11:11:26;;;;;;;27.00;17.30;;;17.80;36.70;;;;;;5167965;27;47169;-20
2022/03/26 11:13:53;;;;;;;27.73;17.20;;;17.90;36.70;;;;;;5168094;27;48117;-21
2022/03/26 11:16:26;;;;;;;27.33;17.15;;;18.00;36.50;;;;;;5168893;27;47171;-20
2022/03/26 11:18:56;;;;;;;24.88;16.25;;;18.00;36.30;;;;;;5170176;27;47044;-21
2022/03/26 11:21:51;;;;;;;31.05;17.15;;;18.20;36.00;;;;;;5169763;27;47027;-20
2022/03/26 11:37:10;;;;;;;24.83;17.13;;;18.30;35.20;;;;;;5163981;27;46911;-15
2022/03/26 11:39:43;;;;;;;25.73;17.75;;;18.70;35.20;;;;;;5164626;27;46968;-15
2022/03/26 11:42:11;;;;;;;25.65;17.95;;;18.90;34.60;;;;;;5164869;27;47163;-15
2022/03/26 11:44:37;;;;;;;28.00;17.48;;;19.00;34.10;;;;;;5163726;27;48088;-16
2022/03/26 11:52:41;;;;;;;26.50;16.02;;;19.40;34.20;;;;;;5141840;27;46864;-14
2022/03/26 11:55:24;;;;;;;29.83;17.48;;;19.50;33.90;;;;;;5164278;27;48899;-15
2022/03/26 11:58:13;;;;;;;24.33;16.77;;;19.60;33.80;;;;;;5164191;27;46835;-14
2022/03/26 12:00:55;;;;;;;30.27;17.00;;;19.60;33.60;;;;;;5164260;27;47068;-15
2022/03/26 12:03:23;;;;;;;24.00;15.85;;;19.70;33.60;;;;;;5164603;27;46922;-15
2022/03/26 12:08:36;;;;;;;27.83;17.45;;;19.80;32.90;;;;;;5161115;27;46884;-15
2022/03/26 12:11:02;;;;;;;28.90;16.85;;;19.90;32.80;;;;;;5160822;27;47106;-14
2022/03/26 12:13:32;;;;;;;23.77;15.32;;;20.00;33.00;;;;;;5164136;27;46920;-15
2022/03/26 12:15:59;;;;;;;27.15;17.35;;;20.00;32.90;;;;;;5161859;27;49069;-15
2022/03/26 13:54:48;;;;;;;19.98;14.05;;;20.50;31.60;;;;;;5097663;27;47086;-23
2022/03/26 13:57:15;;;;;;;17.30;12.65;;;21.70;30.40;;;;;;5101474;27;47034;-21
2022/03/26 13:59:43;;;;;;;21.60;15.48;;;21.90;30.00;;;;;;5122706;27;46920;-21
2022/03/26 14:02:12;;;;;;;20.38;13.15;;;22.10;29.20;;;;;;5102914;27;48755;-21
2022/03/26 14:04:39;;;;;;;24.10;14.20;;;22.30;28.80;;;;;;5104667;27;46942;-22
2022/03/26 14:07:06;;;;;;;21.20;13.95;;;22.40;28.20;;;;;;5101133;27;46877;-21
2022/03/26 14:09:33;;;;;;;20.90;13.27;;;22.60;27.90;;;;;;5099828;27;46987;-21
2022/03/26 14:12:03;;;;;;;18.75;12.75;;;22.70;27.90;;;;;;5103639;27;48934;-21
2022/03/26 14:14:30;;;;;;;17.60;12.63;;;22.80;27.50;;;;;;5101879;27;46886;-22
2022/03/26 14:16:56;;;;;;;18.83;12.27;;;22.90;27.50;;;;;;5101365;27;47325;-23
2022/03/26 14:19:23;;;;;;;18.00;12.55;;;23.00;27.10;;;;;;5102348;27;46883;-21
2022/03/26 14:21:50;;;;;;;14.73;11.32;;;23.00;26.70;;;;;;5097329;27;47883;-21
2022/03/26 14:24:17;;;;;;;19.20;12.50;;;23.10;27.60;;;;;;5087534;27;47114;-21
2022/03/26 14:26:44;;;;;;;18.63;12.13;;;23.20;27.10;;;;;;5097207;27;47062;-21
2022/03/26 14:29:12;;;;;;;20.40;12.18;;;23.20;27.30;;;;;;5086105;27;47097;-23
2022/03/26 14:31:39;;;;;;;18.23;12.50;;;23.20;26.60;;;;;;5090492;27;48800;-21
2022/03/26 14:34:06;;;;;;;19.45;12.57;;;23.30;26.40;;;;;;5110205;27;47149;-23
2022/03/26 14:36:33;;;;;;;17.40;12.52;;;23.30;26.60;;;;;;5113981;27;46790;-22